Time;durP1;ratioP1;P1;durP2;ratioP2;P2;SDS_P1;SDS_P2;PMS_P1;PMS_P2;Temp;Humidity;BMP_temperature;BMP_pressure;BME280_temperature;BME280_humidity;BME280_pressure;Samples;Min_cycle;Max_cycle;Signal;HPM_P1;HPM_P2
2022/08/03 00:01:16;;;;;;;;;;;16.10;99.90;;;;;;5053553;28;19909;-73
2022/08/03 00:03:42;;;;;;;;;;;16.00;99.90;;;;;;5053314;28;19909;-73
2022/08/03 00:06:07;;;;;;;;;;;15.90;99.90;;;;;;5054015;28;19916;-73
2022/08/03 00:08:33;;;;;;;;;;;16.00;99.90;;;;;;5053457;28;19917;-74
2022/08/03 00:10:58;;;;;;;;;;;16.00;99.90;;;;;;5053769;28;20301;-73
2022/08/03 00:13:24;;;;;;;;;;;16.00;99.90;;;;;;5052867;28;20092;-73
2022/08/03 00:15:50;;;;;;;;;;;16.00;99.90;;;;;;5053840;28;20007;-73
2022/08/03 00:18:15;;;;;;;;;;;16.00;99.90;;;;;;5055844;28;19977;-73
2022/08/03 00:20:41;;;;;;;;;;;16.00;99.90;;;;;;5052256;28;20067;-73
2022/08/03 00:23:06;;;;;;;;;;;15.90;99.90;;;;;;5051517;28;19916;-73
2022/08/03 00:25:33;;;;;;;;;;;15.80;99.90;;;;;;5053736;28;19908;-73
2022/08/03 00:27:58;;;;;;;;;;;15.90;99.90;;;;;;5053621;28;19915;-73
2022/08/03 00:30:24;;;;;;;;;;;15.80;99.90;;;;;;5053552;28;19995;-73
2022/08/03 00:32:49;;;;;;;;;;;15.70;99.90;;;;;;5052752;28;19909;-73
2022/08/03 00:35:15;;;;;;;;;;;15.70;99.90;;;;;;5052845;28;20281;-73
2022/08/03 00:37:40;;;;;;;;;;;15.70;99.90;;;;;;5053267;28;19909;-73
2022/08/03 00:40:06;;;;;;;;;;;15.60;99.90;;;;;;5053065;28;19995;-72
2022/08/03 00:42:32;;;;;;;;;;;15.60;99.90;;;;;;5052959;28;19916;-73
2022/08/03 00:44:57;;;;;;;;;;;15.60;99.90;;;;;;5046864;28;19909;-73
2022/08/03 00:47:23;;;;;;;;;;;15.60;99.90;;;;;;5057190;28;19909;-73
2022/08/03 00:49:48;;;;;;;;;;;15.50;99.90;;;;;;5052387;28;20370;-73
2022/08/03 00:52:15;;;;;;;;;;;15.50;99.90;;;;;;5052616;28;20285;-73
2022/08/03 00:54:40;;;;;;;;;;;15.50;99.90;;;;;;5052523;28;20236;-73
2022/08/03 00:57:06;;;;;;;;;;;15.50;99.90;;;;;;5053009;28;19944;-73
2022/08/03 00:59:32;;;;;;;;;;;15.50;99.90;;;;;;5052834;28;19916;-73
2022/08/03 01:01:58;;;;;;;;;;;15.50;99.90;;;;;;5052212;28;19909;-73
2022/08/03 01:04:24;;;;;;;;;;;15.50;99.90;;;;;;5050997;28;20617;-73
2022/08/03 01:07:09;;;;;;;;;;;15.50;99.90;;;;;;5052746;28;20013;-73
2022/08/03 01:09:55;;;;;;;;;;;15.50;99.90;;;;;;5051637;28;19917;-73
2022/08/03 01:12:28;;;;;;;;;;;15.40;99.90;;;;;;5050645;28;19969;-73
2022/08/03 01:14:56;;;;;;;;;;;15.30;99.90;;;;;;5051730;28;20255;-73
2022/08/03 01:17:30;;;;;;;;;;;15.30;99.90;;;;;;5052435;28;19909;-73
2022/08/03 01:20:02;;;;;;;;;;;15.30;99.90;;;;;;5052899;28;19909;-73
2022/08/03 01:22:43;;;;;;;;;;;15.20;99.90;;;;;;5052032;28;19915;-73
2022/08/03 01:25:11;;;;;;;;;;;15.20;99.90;;;;;;5045728;28;20002;-73
2022/08/03 01:27:52;;;;;;;;;;;15.10;99.90;;;;;;5051126;28;19913;-73
2022/08/03 01:30:18;;;;;;;;;;;15.10;99.90;;;;;;5052158;28;20326;-73
2022/08/03 01:32:52;;;;;;;;;;;15.10;99.90;;;;;;5051591;28;20003;-73
2022/08/03 01:35:26;;;;;;;;;;;15.10;99.90;;;;;;5051672;28;19917;-73
2022/08/03 01:37:56;;;;;;;;;;;15.00;99.90;;;;;;5052170;28;20259;-73
2022/08/03 01:40:23;;;;;;;;;;;15.10;99.90;;;;;;5052021;28;20354;-73
2022/08/03 01:42:49;;;;;;;;;;;15.10;99.90;;;;;;5051601;28;19919;-73
2022/08/03 01:45:17;;;;;;;;;;;15.10;99.90;;;;;;5049858;28;19959;-73
2022/08/03 01:47:44;;;;;;;;;;;15.00;99.90;;;;;;5054547;28;20476;-73
2022/08/03 01:50:10;;;;;;;;;;;14.90;99.90;;;;;;5050580;28;19913;-73
2022/08/03 01:52:37;;;;;;;;;;;14.80;99.90;;;;;;5051365;28;19920;-73
2022/08/03 01:55:04;;;;;;;;;;;15.00;99.90;;;;;;5051052;28;19913;-73
2022/08/03 01:57:29;;;;;;;;;;;15.00;99.90;;;;;;5051924;28;19909;-73
2022/08/03 01:59:56;;;;;;;;;;;15.00;99.90;;;;;;5051171;28;19916;-73
2022/08/03 02:02:22;;;;;;;;;;;15.00;99.90;;;;;;5051148;28;19909;-73
2022/08/03 02:04:49;;;;;;;;;;;15.00;99.90;;;;;;5051024;28;20350;-73
2022/08/03 02:07:15;;;;;;;;;;;15.00;99.90;;;;;;5051216;28;20282;-73
2022/08/03 02:09:42;;;;;;;;;;;15.00;99.90;;;;;;5051342;28;19954;-73
2022/08/03 02:12:09;;;;;;;;;;;15.00;99.90;;;;;;5051227;28;20277;-73
2022/08/03 02:14:35;;;;;;;;;;;15.00;99.90;;;;;;5051901;28;19908;-73
2022/08/03 02:17:01;;;;;;;;;;;14.90;99.90;;;;;;5055868;28;20356;-73
2022/08/03 02:19:27;;;;;;;;;;;14.80;99.90;;;;;;5051504;28;19948;-73
2022/08/03 02:21:53;;;;;;;;;;;14.90;99.90;;;;;;5050893;28;19909;-73
2022/08/03 02:24:18;;;;;;;;;;;14.80;99.90;;;;;;5050992;28;19920;-73
2022/08/03 02:26:44;;;;;;;;;;;14.80;99.90;;;;;;5051599;28;19909;-73
2022/08/03 02:29:12;;;;;;;;;;;14.80;99.90;;;;;;5051333;28;20259;-73
2022/08/03 02:31:38;;;;;;;;;;;14.90;99.90;;;;;;5051092;28;19951;-73
2022/08/03 02:34:07;;;;;;;;;;;14.80;99.90;;;;;;5049837;28;19998;-73
2022/08/03 02:36:36;;;;;;;;;;;14.80;99.90;;;;;;5051480;28;19940;-73
2022/08/03 02:39:03;;;;;;;;;;;14.80;99.90;;;;;;5049719;28;20386;-73
2022/08/03 02:42:01;;;;;;;;;;;14.70;99.90;;;;;;5051001;28;19999;-77
2022/08/03 02:44:27;;;;;;;;;;;14.80;99.90;;;;;;5045339;28;19908;-74
2022/08/03 02:46:54;;;;;;;;;;;14.80;99.90;;;;;;5049941;28;20274;-74
2022/08/03 02:49:20;;;;;;;;;;;14.80;99.90;;;;;;5048982;28;19909;-75
2022/08/03 02:51:46;;;;;;;;;;;14.70;99.90;;;;;;5054888;28;19909;-77
2022/08/03 02:54:13;;;;;;;;;;;14.70;99.90;;;;;;5054324;28;19912;-76
2022/08/03 02:56:40;;;;;;;;;;;14.70;99.90;;;;;;5054943;28;19920;-74
2022/08/03 02:59:06;;;;;;;;;;;14.60;99.90;;;;;;5055057;28;19909;-73
2022/08/03 03:01:31;;;;;;;;;;;14.50;99.90;;;;;;5054660;28;19992;-77
2022/08/03 03:03:58;;;;;;;;;;;14.40;99.90;;;;;;5054526;28;20465;-74
2022/08/03 03:06:25;;;;;;;;;;;14.50;99.90;;;;;;5054912;28;20424;-74
2022/08/03 03:08:51;;;;;;;;;;;14.50;99.90;;;;;;5054633;28;19920;-73
2022/08/03 03:11:18;;;;;;;;;;;14.50;99.90;;;;;;5054405;28;19912;-76
2022/08/03 03:13:44;;;;;;;;;;;14.50;99.90;;;;;;5052412;28;20007;-73
2022/08/03 03:16:11;;;;;;;;;;;14.40;99.90;;;;;;5050018;28;20007;-74
2022/08/03 03:18:38;;;;;;;;;;;14.40;99.90;;;;;;5054653;28;20007;-74
2022/08/03 03:21:03;;;;;;;;;;;14.40;99.90;;;;;;5054839;28;20309;-73
2022/08/03 03:23:30;;;;;;;;;;;14.40;99.90;;;;;;5052629;28;19919;-73
2022/08/03 03:25:57;;;;;;;;;;;14.30;99.90;;;;;;5054996;28;20290;-74
2022/08/03 03:28:23;;;;;;;;;;;14.30;99.90;;;;;;5054574;28;19955;-74
2022/08/03 03:30:48;;;;;;;;;;;14.30;99.90;;;;;;5051424;28;20327;-76
2022/08/03 03:33:14;;;;;;;;;;;14.30;99.90;;;;;;5050065;28;19915;-73
2022/08/03 03:35:41;;;;;;;;;;;14.30;99.90;;;;;;5054606;28;19959;-73
2022/08/03 03:38:06;;;;;;;;;;;14.30;99.90;;;;;;5054368;28;19913;-76
2022/08/03 03:40:33;;;;;;;;;;;14.30;99.90;;;;;;5053926;28;19954;-74
2022/08/03 03:42:59;;;;;;;;;;;14.20;99.90;;;;;;5053656;28;20270;-73
2022/08/03 03:45:25;;;;;;;;;;;14.30;99.90;;;;;;5049190;28;19915;-77
2022/08/03 03:47:50;;;;;;;;;;;14.30;99.90;;;;;;5053993;28;19931;-76
2022/08/03 03:50:17;;;;;;;;;;;14.30;99.90;;;;;;5054308;28;20382;-74
2022/08/03 03:52:42;;;;;;;;;;;14.30;99.90;;;;;;5053777;28;19909;-73
2022/08/03 03:55:08;;;;;;;;;;;14.30;99.90;;;;;;5052648;28;20489;-73
2022/08/03 03:57:34;;;;;;;;;;;14.30;99.90;;;;;;5052713;28;19916;-74
2022/08/03 03:59:59;;;;;;;;;;;14.20;99.90;;;;;;5053971;28;20386;-75
2022/08/03 04:02:24;;;;;;;;;;;14.20;99.90;;;;;;5053643;28;19916;-73
2022/08/03 04:10:58;;;;;;;;;;;14.20;99.90;;;;;;5049702;28;20281;-73
2022/08/03 04:13:26;;;;;;;;;;;14.30;99.90;;;;;;5052864;28;19913;-74
2022/08/03 04:15:52;;;;;;;;;;;14.30;99.90;;;;;;5056667;28;19920;-77
2022/08/03 04:18:18;;;;;;;;;;;14.30;99.90;;;;;;5053476;28;19991;-73
2022/08/03 04:20:45;;;;;;;;;;;14.20;99.90;;;;;;5053667;28;19916;-74
2022/08/03 04:23:12;;;;;;;;;;;14.20;99.90;;;;;;5053044;28;19909;-73
2022/08/03 04:25:38;;;;;;;;;;;14.20;99.90;;;;;;5053210;28;19909;-75
2022/08/03 04:28:04;;;;;;;;;;;14.20;99.90;;;;;;5053449;28;20365;-74
2022/08/03 04:30:32;;;;;;;;;;;14.30;99.90;;;;;;5053380;28;19916;-77
2022/08/03 04:32:57;;;;;;;;;;;14.20;99.90;;;;;;5051975;28;19915;-74
2022/08/03 04:35:24;;;;;;;;;;;14.30;99.90;;;;;;5052940;28;19916;-74
2022/08/03 04:37:51;;;;;;;;;;;14.40;99.90;;;;;;5053316;28;19909;-78
2022/08/03 04:40:43;;;;;;;;;;;14.30;99.90;;;;;;5053101;28;19959;-74
2022/08/03 04:43:10;;;;;;;;;;;14.30;99.90;;;;;;5044996;28;19912;-74
2022/08/03 04:45:36;;;;;;;;;;;14.40;99.90;;;;;;5053000;28;19908;-74
2022/08/03 04:48:02;;;;;;;;;;;14.50;99.90;;;;;;5052901;28;20377;-73
2022/08/03 04:50:28;;;;;;;;;;;14.60;99.90;;;;;;5053085;28;19913;-74
2022/08/03 04:52:54;;;;;;;;;;;14.60;99.90;;;;;;5049559;28;20416;-75
2022/08/03 04:55:26;;;;;;;;;;;14.70;99.90;;;;;;5051223;28;20019;-74
2022/08/03 04:57:52;;;;;;;;;;;14.70;99.90;;;;;;5032511;28;19909;-73
2022/08/03 05:00:17;;;;;;;;;;;14.90;99.90;;;;;;5053035;28;19954;-74
2022/08/03 05:02:43;;;;;;;;;;;14.90;99.90;;;;;;5050792;28;19912;-77
2022/08/03 05:05:08;;;;;;;;;;;14.90;99.90;;;;;;5052192;28;19920;-79
2022/08/03 05:07:34;;;;;;;;;;;15.00;99.90;;;;;;5048161;28;20103;-73
2022/08/03 05:09:59;;;;;;;;;;;15.10;99.90;;;;;;5057500;28;19916;-74
2022/08/03 05:12:25;;;;;;;;;;;15.20;99.90;;;;;;5049034;28;19924;-75
2022/08/03 05:14:50;;;;;;;;;;;15.30;99.90;;;;;;5054057;28;20007;-74
2022/08/03 05:17:16;;;;;;;;;;;15.30;99.90;;;;;;5052475;28;19966;-73
2022/08/03 05:19:41;;;;;;;;;;;15.40;99.90;;;;;;5051145;28;19932;-74
2022/08/03 05:22:07;;;;;;;;;;;15.40;99.90;;;;;;5051525;28;19924;-77
2022/08/03 05:24:32;;;;;;;;;;;15.50;99.90;;;;;;5051399;28;20378;-74
2022/08/03 05:26:58;;;;;;;;;;;15.40;99.90;;;;;;5052328;28;19913;-74
2022/08/03 05:29:23;;;;;;;;;;;15.40;99.90;;;;;;5052292;28;19986;-74
2022/08/03 05:31:49;;;;;;;;;;;15.40;99.90;;;;;;5051976;28;20305;-74
2022/08/03 05:34:14;;;;;;;;;;;15.60;99.90;;;;;;5051832;28;19915;-74
2022/08/03 05:36:40;;;;;;;;;;;15.90;99.90;;;;;;5051955;28;20033;-74
2022/08/03 05:39:05;;;;;;;;;;;16.10;99.90;;;;;;5051987;28;20008;-77
2022/08/03 05:41:31;;;;;;;;;;;16.20;99.90;;;;;;5051475;28;19967;-74
2022/08/03 05:43:56;;;;;;;;;;;16.40;99.90;;;;;;5042998;28;19947;-74
2022/08/03 05:46:22;;;;;;;;;;;16.50;99.90;;;;;;5053884;28;20416;-74
2022/08/03 05:48:48;;;;;;;;;;;16.60;99.90;;;;;;5051816;28;19963;-74
2022/08/03 05:51:14;;;;;;;;;;;16.80;99.90;;;;;;5051847;28;19915;-79
2022/08/03 05:53:40;;;;;;;;;;;16.90;99.90;;;;;;5050908;28;19908;-74
2022/08/03 05:56:06;;;;;;;;;;;17.10;99.90;;;;;;5051808;28;20020;-75
2022/08/03 05:58:31;;;;;;;;;;;17.20;99.90;;;;;;5052049;28;20429;-74
2022/08/03 06:00:57;;;;;;;;;;;17.30;99.90;;;;;;5051865;28;19955;-74
2022/08/03 06:03:22;;;;;;;;;;;17.60;99.90;;;;;;5050868;28;19919;-74
2022/08/03 06:05:48;;;;;;;;;;;17.80;99.90;;;;;;5051589;28;20348;-78
2022/08/03 06:08:13;;;;;;;;;;;17.90;99.90;;;;;;5051421;28;19917;-74
2022/08/03 06:10:39;;;;;;;;;;;17.80;99.90;;;;;;5051532;28;19909;-74
2022/08/03 06:13:04;;;;;;;;;;;17.90;99.90;;;;;;5050396;28;19995;-81
2022/08/03 06:15:32;;;;;;;;;;;18.20;99.90;;;;;;5051499;28;19919;-74
2022/08/03 06:17:57;;;;;;;;;;;18.30;99.90;;;;;;5051584;28;20046;-74
2022/08/03 06:20:23;;;;;;;;;;;18.60;99.90;;;;;;5050965;28;20374;-74
2022/08/03 06:22:48;;;;;;;;;;;18.60;99.90;;;;;;5050795;28;19915;-74
2022/08/03 06:25:15;;;;;;;;;;;18.60;99.90;;;;;;5050909;28;19913;-72
2022/08/03 06:27:41;;;;;;;;;;;18.70;99.90;;;;;;5051468;28;20003;-72
2022/08/03 06:30:07;;;;;;;;;;;18.90;99.90;;;;;;5051300;28;20412;-76
2022/08/03 06:32:33;;;;;;;;;;;19.10;99.90;;;;;;5051414;28;19937;-75
2022/08/03 06:34:59;;;;;;;;;;;19.20;99.90;;;;;;5050253;28;19909;-77
2022/08/03 06:37:25;;;;;;;;;;;19.10;99.90;;;;;;5050737;28;19909;-74
2022/08/03 06:39:51;;;;;;;;;;;19.40;99.90;;;;;;5051190;28;19967;-73
2022/08/03 06:42:17;;;;;;;;;;;19.50;99.90;;;;;;5049682;28;19917;-75
2022/08/03 06:44:43;;;;;;;;;;;19.70;99.90;;;;;;5048622;28;20336;-72
2022/08/03 06:47:08;;;;;;;;;;;19.80;99.90;;;;;;5047560;28;19962;-72
2022/08/03 06:49:34;;;;;;;;;;;19.90;99.90;;;;;;5051000;28;19909;-73
2022/08/03 06:51:59;;;;;;;;;;;20.00;99.90;;;;;;5050433;28;19997;-74
2022/08/03 06:54:25;;;;;;;;;;;20.30;99.90;;;;;;5050675;28;20288;-72
2022/08/03 06:56:50;;;;;;;;;;;20.40;99.90;;;;;;5047358;28;19974;-73
2022/08/03 06:59:16;;;;;;;;;;;20.60;99.90;;;;;;5052443;28;20378;-72
2022/08/03 07:01:41;;;;;;;;;;;20.90;99.90;;;;;;5043751;28;19948;-73
2022/08/03 07:04:07;;;;;;;;;;;21.10;99.90;;;;;;5050600;28;19955;-73
2022/08/03 07:06:33;;;;;;;;;;;21.40;99.90;;;;;;5051032;28;19999;-73
2022/08/03 07:08:58;;;;;;;;;;;21.70;99.90;;;;;;5049205;28;20366;-73
2022/08/03 07:11:24;;;;;;;;;;;22.20;99.90;;;;;;5050561;28;19946;-75
2022/08/03 07:13:50;;;;;;;;;;;22.40;99.90;;;;;;5050320;28;19909;-74
2022/08/03 07:16:15;;;;;;;;;;;22.70;99.90;;;;;;5050903;28;19912;-73
2022/08/03 07:18:41;;;;;;;;;;;24.20;99.90;;;;;;5056329;28;19940;-74
2022/08/03 07:21:08;;;;;;;;;;;24.80;99.90;;;;;;5050704;28;19913;-74
2022/08/03 07:23:33;;;;;;;;;;;25.20;99.90;;;;;;5049717;28;19959;-74
2022/08/03 07:25:59;;;;;;;;;;;26.30;99.90;;;;;;5050820;28;19948;-74
2022/08/03 07:28:24;;;;;;;;;;;26.80;99.90;;;;;;5050679;28;19909;-74
2022/08/03 07:30:50;;;;;;;;;;;27.20;99.20;;;;;;5050796;28;20000;-78
2022/08/03 07:33:15;;;;;;;;;;;27.60;98.00;;;;;;5047088;28;19909;-74
2022/08/03 07:35:41;;;;;;;;;;;28.50;95.90;;;;;;5054413;28;19913;-74
2022/08/03 07:38:06;;;;;;;;;;;28.30;94.70;;;;;;5054010;28;19917;-75
2022/08/03 07:40:32;;;;;;;;;;;29.30;92.80;;;;;;5054454;28;19909;-74
2022/08/03 07:42:58;;;;;;;;;;;29.80;90.80;;;;;;5053946;28;19941;-74
2022/08/03 07:45:25;;;;;;;;;;;29.30;90.60;;;;;;5055421;28;19908;-74
2022/08/03 07:47:50;;;;;;;;;;;29.40;90.20;;;;;;5058005;28;19909;-78
2022/08/03 07:50:16;;;;;;;;;;;29.40;86.70;;;;;;5054216;28;19919;-74
2022/08/03 07:52:48;;;;;;;;;;;29.70;89.10;;;;;;5053594;28;19913;-73
2022/08/03 07:55:14;;;;;;;;;;;29.80;88.20;;;;;;5053791;28;19909;-73
2022/08/03 07:57:39;;;;;;;;;;;29.90;84.70;;;;;;5054200;28;19916;-74
2022/08/03 08:00:05;;;;;;;;;;;29.60;85.80;;;;;;5053915;28;19955;-75
2022/08/03 08:02:32;;;;;;;;;;;29.80;84.90;;;;;;5051988;28;19913;-77
2022/08/03 08:04:58;;;;;;;;;;;30.40;87.00;;;;;;5052103;28;20443;-73
2022/08/03 08:07:25;;;;;;;;;;;30.80;81.00;;;;;;5053996;28;19908;-74
2022/08/03 08:09:50;;;;;;;;;;;31.00;84.40;;;;;;5053944;28;19959;-74
2022/08/03 08:12:16;;;;;;;;;;;30.20;82.00;;;;;;5053815;28;19909;-74
2022/08/03 08:14:44;;;;;;;;;;;30.30;79.30;;;;;;5053845;28;19909;-74
2022/08/03 08:17:10;;;;;;;;;;;30.00;84.90;;;;;;5058314;28;19966;-74
2022/08/03 08:19:35;;;;;;;;;;;30.30;83.00;;;;;;5053501;28;19999;-76
2022/08/03 08:22:00;;;;;;;;;;;30.80;79.90;;;;;;5053166;28;19913;-74
2022/08/03 08:24:29;;;;;;;;;;;30.60;79.20;;;;;;5053261;28;19913;-74
2022/08/03 08:26:55;;;;;;;;;;;31.90;79.90;;;;;;5053665;28;19931;-74
2022/08/03 08:29:22;;;;;;;;;;;32.70;80.00;;;;;;5053101;28;20350;-74
2022/08/03 08:31:49;;;;;;;;;;;32.50;78.10;;;;;;5053117;28;20287;-74
2022/08/03 08:34:14;;;;;;;;;;;32.80;75.60;;;;;;5052661;28;19908;-74
2022/08/03 08:36:40;;;;;;;;;;;32.20;74.20;;;;;;5053217;28;19913;-74
2022/08/03 08:39:06;;;;;;;;;;;32.80;73.90;;;;;;5053109;28;20332;-75
2022/08/03 08:41:34;;;;;;;;;;;32.20;70.90;;;;;;5052956;28;19912;-74
2022/08/03 08:44:00;;;;;;;;;;;32.40;71.20;;;;;;5045080;28;19913;-74
2022/08/03 08:46:26;;;;;;;;;;;32.50;72.50;;;;;;5053041;28;19948;-78
2022/08/03 08:48:52;;;;;;;;;;;32.80;73.30;;;;;;5052907;28;19916;-74
2022/08/03 08:51:18;;;;;;;;;;;32.60;75.30;;;;;;5052559;28;20520;-74
2022/08/03 08:53:46;;;;;;;;;;;33.40;70.30;;;;;;5052331;28;19908;-74
2022/08/03 08:56:14;;;;;;;;;;;33.40;72.70;;;;;;5053114;28;20286;-74
2022/08/03 08:58:43;;;;;;;;;;;32.50;68.60;;;;;;5052583;28;19932;-78
2022/08/03 09:01:08;;;;;;;;;;;31.50;72.40;;;;;;5052728;28;19909;-73
2022/08/03 09:03:34;;;;;;;;;;;32.60;74.60;;;;;;5050238;28;19912;-77
2022/08/03 09:06:01;;;;;;;;;;;34.40;73.00;;;;;;5052802;28;19909;-73
2022/08/03 09:08:27;;;;;;;;;;;34.50;71.40;;;;;;5052640;28;19916;-76
2022/08/03 09:10:53;;;;;;;;;;;34.40;65.80;;;;;;5052587;28;19913;-74
2022/08/03 09:13:18;;;;;;;;;;;34.50;63.10;;;;;;5051363;28;19915;-77
2022/08/03 09:15:45;;;;;;;;;;;34.80;65.60;;;;;;5056472;28;19955;-74
2022/08/03 09:18:11;;;;;;;;;;;34.60;63.70;;;;;;5052302;28;19967;-73
2022/08/03 09:20:36;;;;;;;;;;;34.20;66.80;;;;;;5052493;28;20214;-74
2022/08/03 09:23:03;;;;;;;;;;;35.00;66.80;;;;;;5052139;28;20492;-73
2022/08/03 09:25:30;;;;;;;;;;;35.70;63.90;;;;;;5051986;28;20382;-73
2022/08/03 09:28:03;;;;;;;;;;;35.70;65.10;;;;;;5050670;28;19913;-74
2022/08/03 09:30:29;;;;;;;;;;;36.00;59.30;;;;;;5052363;28;20199;-73
2022/08/03 09:32:59;;;;;;;;;;;35.20;58.60;;;;;;5051830;28;19996;-73
2022/08/03 09:35:26;;;;;;;;;;;35.00;65.20;;;;;;5051813;28;19912;-74
2022/08/03 09:38:07;;;;;;;;;;;35.40;64.00;;;;;;5052318;28;19909;-74
2022/08/03 09:40:34;;;;;;;;;;;34.90;59.40;;;;;;5052216;28;19909;-73
2022/08/03 09:43:00;;;;;;;;;;;35.40;63.30;;;;;;5048080;28;19978;-74
2022/08/03 09:45:26;;;;;;;;;;;35.80;61.80;;;;;;5053230;28;20349;-74
2022/08/03 09:47:52;;;;;;;;;;;35.20;59.70;;;;;;5052103;28;19909;-74
2022/08/03 09:50:17;;;;;;;;;;;34.90;58.60;;;;;;5051673;28;20278;-74
2022/08/03 09:52:43;;;;;;;;;;;35.50;64.40;;;;;;5051649;28;19913;-74
2022/08/03 09:55:09;;;;;;;;;;;36.60;59.40;;;;;;5051594;28;19913;-74
2022/08/03 09:57:35;;;;;;;;;;;36.60;58.90;;;;;;5051782;28;20370;-75
2022/08/03 10:00:11;;;;;;;;;;;37.30;58.50;;;;;;5051500;28;20026;-75
2022/08/03 10:02:36;;;;;;;;;;;36.90;58.30;;;;;;5051656;28;19913;-75
2022/08/03 10:05:03;;;;;;;;;;;36.90;55.90;;;;;;5051112;28;20429;-75
2022/08/03 10:07:28;;;;;;;;;;;37.00;60.00;;;;;;5051734;28;19909;-74
2022/08/03 10:09:58;;;;;;;;;;;36.70;58.40;;;;;;5051604;28;19996;-74
2022/08/03 10:12:24;;;;;;;;;;;37.50;57.70;;;;;;5051185;28;19962;-75
2022/08/03 10:14:49;;;;;;;;;;;37.40;57.60;;;;;;5050646;28;19916;-75
2022/08/03 10:17:15;;;;;;;;;;;37.30;58.20;;;;;;5051113;28;19917;-75
2022/08/03 10:19:40;;;;;;;;;;;37.00;60.60;;;;;;5049285;28;19971;-74
2022/08/03 10:22:09;;;;;;;;;;;36.90;57.80;;;;;;5051050;28;20355;-75
2022/08/03 10:24:36;;;;;;;;;;;37.00;59.40;;;;;;5050784;28;19909;-75
2022/08/03 10:27:06;;;;;;;;;;;37.00;56.40;;;;;;5051431;28;19959;-75
2022/08/03 10:29:38;;;;;;;;;;;37.00;61.00;;;;;;5051071;28;19909;-74
2022/08/03 10:32:08;;;;;;;;;;;37.00;56.10;;;;;;5050950;28;20328;-75
2022/08/03 10:34:36;;;;;;;;;;;36.70;52.10;;;;;;5050825;28;19909;-74
2022/08/03 10:37:06;;;;;;;;;;;36.20;58.50;;;;;;5051175;28;19917;-75
2022/08/03 10:39:32;;;;;;;;;;;36.50;59.50;;;;;;5051489;28;19909;-75
2022/08/03 10:41:58;;;;;;;;;;;36.60;59.10;;;;;;5051115;28;19935;-75
2022/08/03 10:44:24;;;;;;;;;;;36.10;58.50;;;;;;5049369;28;19962;-74
2022/08/03 10:46:50;;;;;;;;;;;36.00;56.00;;;;;;5050639;28;19912;-75
2022/08/03 10:49:19;;;;;;;;;;;35.80;59.70;;;;;;5051112;28;20335;-75
2022/08/03 10:51:45;;;;;;;;;;;35.60;58.10;;;;;;5050848;28;19909;-74
2022/08/03 10:54:29;;;;;;;;;;;36.00;58.60;;;;;;5050806;28;20324;-74
2022/08/03 10:59:45;;;;;;;;;;;34.20;59.30;;;;;;5046310;28;19978;-74
2022/08/03 11:02:12;;;;;;;;;;;34.60;58.10;;;;;;5045595;28;19909;-74
2022/08/03 11:04:38;;;;;;;;;;;34.20;60.10;;;;;;5050627;28;20354;-74
2022/08/03 11:07:21;;;;;;;;;;;34.80;60.80;;;;;;5052769;28;19909;-74
2022/08/03 11:09:55;;;;;;;;;;;34.70;58.30;;;;;;5055135;28;19916;-74
2022/08/03 11:12:28;;;;;;;;;;;34.80;62.80;;;;;;5054665;28;19909;-75
2022/08/03 11:14:54;;;;;;;;;;;35.50;57.80;;;;;;5054244;28;19909;-75
2022/08/03 11:17:21;;;;;;;;;;;35.00;53.30;;;;;;5059630;28;19966;-75
2022/08/03 11:19:47;;;;;;;;;;;34.50;58.30;;;;;;5054965;28;19952;-75
2022/08/03 11:22:14;;;;;;;;;;;35.20;64.00;;;;;;5054420;28;19909;-75
2022/08/03 11:24:39;;;;;;;;;;;36.10;57.70;;;;;;5054418;28;20004;-75
2022/08/03 11:29:58;;;;;;;;;;;35.20;56.70;;;;;;5054874;28;19940;-75
2022/08/03 11:32:36;;;;;;;;;;;34.70;56.60;;;;;;5054276;28;20393;-75
2022/08/03 11:35:07;;;;;;;;;;;35.00;58.70;;;;;;5054190;28;19909;-75
2022/08/03 11:37:33;;;;;;;;;;;35.40;56.90;;;;;;5055118;28;20316;-75
2022/08/03 11:39:59;;;;;;;;;;;35.60;56.40;;;;;;5054434;28;19913;-75
2022/08/03 11:42:37;;;;;;;;;;;35.50;53.80;;;;;;5054209;28;19996;-75
2022/08/03 11:45:05;;;;;;;;;;;36.00;56.40;;;;;;5053693;28;19909;-75
2022/08/03 11:47:35;;;;;;;;;;;36.30;56.40;;;;;;5048445;28;19946;-75
2022/08/03 11:50:00;;;;;;;;;;;34.90;57.10;;;;;;5054117;28;19909;-75
2022/08/03 11:52:26;;;;;;;;;;;34.50;51.50;;;;;;5054126;28;20285;-75
2022/08/03 11:54:52;;;;;;;;;;;34.80;53.30;;;;;;5054085;28;19909;-75
2022/08/03 11:57:30;;;;;;;;;;;35.00;58.60;;;;;;5054675;28;19920;-75
2022/08/03 11:59:56;;;;;;;;;;;34.90;52.20;;;;;;5054186;28;19909;-75
2022/08/03 12:02:21;;;;;;;;;;;35.20;54.80;;;;;;5052497;28;19908;-75
2022/08/03 12:04:57;;;;;;;;;;;35.40;55.50;;;;;;5053668;28;19962;-75
2022/08/03 12:07:23;;;;;;;;;;;35.60;53.10;;;;;;5047670;28;19912;-75
2022/08/03 12:10:25;;;;;;;;;;;35.20;56.60;;;;;;5053958;28;19920;-75
2022/08/03 12:12:57;;;;;;;;;;;34.20;59.10;;;;;;5031651;28;19932;-75
2022/08/03 12:15:29;;;;;;;;;;;34.50;57.80;;;;;;5047137;28;19940;-75
2022/08/03 12:17:55;;;;;;;;;;;34.70;56.50;;;;;;5053116;28;19981;-75
2022/08/03 12:20:22;;;;;;;;;;;34.50;55.00;;;;;;5058898;28;20004;-75
2022/08/03 12:22:47;;;;;;;;;;;34.30;55.20;;;;;;5053476;28;20011;-75
2022/08/03 12:25:23;;;;;;;;;;;34.10;54.20;;;;;;5053395;28;19997;-75
2022/08/03 12:27:50;;;;;;;;;;;34.30;58.90;;;;;;5046809;28;19966;-75
2022/08/03 12:30:15;;;;;;;;;;;35.10;54.00;;;;;;5053454;28;20294;-75
2022/08/03 12:32:42;;;;;;;;;;;36.70;52.50;;;;;;5053136;28;19916;-75
2022/08/03 12:35:07;;;;;;;;;;;38.20;49.70;;;;;;5053050;28;19913;-75
2022/08/03 12:37:33;;;;;;;;;;;39.40;47.40;;;;;;5053609;28;19909;-75
2022/08/03 12:40:00;;;;;;;;;;;38.90;44.90;;;;;;5053306;28;19955;-75
2022/08/03 12:42:29;;;;;;;;;;;38.60;44.40;;;;;;5053613;28;20004;-75
2022/08/03 12:44:55;;;;;;;;;;;39.40;47.00;;;;;;5053136;28;20385;-75
2022/08/03 12:47:20;;;;;;;;;;;40.60;46.30;;;;;;5052155;28;19909;-75
2022/08/03 12:49:46;;;;;;;;;;;41.10;43.30;;;;;;5053321;28;20317;-75
2022/08/03 12:52:12;;;;;;;;;;;40.30;42.00;;;;;;5052745;28;19909;-75
2022/08/03 12:54:38;;;;;;;;;;;40.60;43.90;;;;;;5052513;28;20266;-75
2022/08/03 12:57:05;;;;;;;;;;;39.90;42.40;;;;;;5053131;28;19919;-75
2022/08/03 12:59:35;;;;;;;;;;;40.00;41.90;;;;;;5052990;28;19909;-75
2022/08/03 13:02:01;;;;;;;;;;;40.50;42.80;;;;;;5052706;28;19909;-75
2022/08/03 13:04:27;;;;;;;;;;;40.80;43.30;;;;;;5052649;28;19999;-75
2022/08/03 13:06:56;;;;;;;;;;;40.40;40.80;;;;;;5052718;28;19920;-75
2022/08/03 13:09:24;;;;;;;;;;;40.50;41.00;;;;;;5052648;28;19974;-75
2022/08/03 13:12:03;;;;;;;;;;;40.60;39.10;;;;;;5052122;28;19909;-75
2022/08/03 13:14:28;;;;;;;;;;;40.90;41.60;;;;;;5050685;28;19909;-75
2022/08/03 13:16:54;;;;;;;;;;;40.80;42.40;;;;;;5052489;28;19919;-75
2022/08/03 13:19:19;;;;;;;;;;;40.90;43.00;;;;;;5052605;28;19909;-75
2022/08/03 13:21:47;;;;;;;;;;;40.90;40.00;;;;;;5052090;28;19909;-75
2022/08/03 13:24:13;;;;;;;;;;;40.10;40.20;;;;;;5052131;28;19951;-75
2022/08/03 13:26:38;;;;;;;;;;;39.50;42.30;;;;;;5052581;28;19949;-75
2022/08/03 13:29:04;;;;;;;;;;;40.90;41.40;;;;;;5051815;28;20421;-75
2022/08/03 13:31:30;;;;;;;;;;;40.50;39.60;;;;;;5051944;28;19913;-75
2022/08/03 13:33:55;;;;;;;;;;;40.80;40.30;;;;;;5051853;28;19915;-75
2022/08/03 13:36:21;;;;;;;;;;;41.10;41.50;;;;;;5051050;28;19913;-75
2022/08/03 13:38:46;;;;;;;;;;;40.50;41.90;;;;;;5052331;28;19971;-75
2022/08/03 13:41:12;;;;;;;;;;;40.30;38.80;;;;;;5052261;28;19916;-75
2022/08/03 13:43:37;;;;;;;;;;;39.40;40.60;;;;;;5053406;28;19914;-75
2022/08/03 13:46:03;;;;;;;;;;;40.30;39.70;;;;;;5052118;28;19915;-76
2022/08/03 13:48:28;;;;;;;;;;;40.80;39.70;;;;;;5047841;28;20279;-75
2022/08/03 13:50:53;;;;;;;;;;;40.60;42.40;;;;;;5048625;28;19952;-75
2022/08/03 13:53:19;;;;;;;;;;;39.30;40.80;;;;;;5050715;28;19935;-75
2022/08/03 13:55:44;;;;;;;;;;;39.00;42.10;;;;;;5052130;28;19916;-75
2022/08/03 13:58:11;;;;;;;;;;;39.60;44.10;;;;;;5051949;28;19931;-75
2022/08/03 14:00:38;;;;;;;;;;;40.60;43.20;;;;;;5052334;28;19908;-75
2022/08/03 14:03:04;;;;;;;;;;;41.00;40.80;;;;;;5051247;28;20345;-75
2022/08/03 14:05:30;;;;;;;;;;;41.80;39.30;;;;;;5051139;28;19940;-75
2022/08/03 14:07:56;;;;;;;;;;;40.90;40.40;;;;;;5051566;28;20021;-75
2022/08/03 14:10:21;;;;;;;;;;;41.00;40.90;;;;;;5051798;28;19948;-75
2022/08/03 14:12:47;;;;;;;;;;;39.60;41.40;;;;;;5051202;28;19959;-75
2022/08/03 14:15:13;;;;;;;;;;;39.30;42.10;;;;;;5051185;28;20306;-75
2022/08/03 14:17:39;;;;;;;;;;;40.00;40.00;;;;;;5048254;28;20365;-75
2022/08/03 14:20:05;;;;;;;;;;;40.00;41.10;;;;;;5052010;28;20003;-76
2022/08/03 14:22:31;;;;;;;;;;;40.90;40.10;;;;;;5051435;28;20347;-75
2022/08/03 14:24:56;;;;;;;;;;;41.00;39.60;;;;;;5051060;28;19999;-75
2022/08/03 14:27:22;;;;;;;;;;;40.20;41.80;;;;;;5051605;28;19913;-75